Fure West — OZ2100 — position and weather

sailwx.info

Track history (hours):
 
Tides and Currents Weather Stations Pressure Air Temp Water Temp Dewpoint Dewpoint Depression Visibility Wind Speed Wind Dir Waves Ship Positions

Fure West

Last reported at 2014-Dec-21 15:29 UTC. Time now 2014-Dec-21 15:54 UTC.
Position N 51°16' E 004°21'.

Length 144 m; draft 9.4 m.

Type: Tanker. MMSI: 231775000.

Date/timePositionNaut miles runAvg speedWind from/ knotsBaromVisibWave heightAir tempDewpointWater temp
2014-Dec-21 15:29N 51°16' E 004°21'0 0.0
2014-Dec-21 14:29N 51°16' E 004°21'0 0.0
2014-Dec-21 13:29N 51°16' E 004°21'0 0.2
2014-Dec-21 12:34N 51°17' E 004°21'1 0.6
2014-Dec-21 11:34N 51°17' E 004°20'2 2.0
2014-Dec-21 10:34N 51°18' E 004°17'9 8.8
2014-Dec-21 09:33N 51°22' E 004°05'9 8.8
2014-Dec-21 08:33N 51°21' E 003°51'1110.8
2014-Dec-21 07:33N 51°25' E 003°36'1211.6
2014-Dec-21 06:29N 51°24' E 003°16'10 7.8
2014-Dec-21 05:16N 51°29' E 003°03'913.2
2014-Dec-21 04:33N 51°37' E 003°11'8 7.4
2014-Dec-21 03:31N 51°45' E 003°09'3 2.4
2014-Dec-21 02:26N 51°45' E 003°05'0 0.5
2014-Dec-21 01:32N 51°45' E 003°04'1 1.3
2014-Dec-21 00:26N 51°46' E 003°06'1 0.9
2014-Dec-20 23:22N 51°45' E 003°06'1 1.6
2014-Dec-20 22:32N 51°45' E 003°04'1211.9
2014-Dec-20 21:33N 51°41' E 002°47'1111.4
2014-Dec-20 20:33N 51°30' E 002°41'1 1.4
2014-Dec-20 19:33N 51°29' E 002°41'0 0.5
2014-Dec-20 18:33N 51°28' E 002°41'1 0.6
2014-Dec-20 17:32N 51°28' E 002°41'0 0.4
2014-Dec-20 16:32N 51°28' E 002°42'0 0.5
2014-Dec-20 15:32N 51°28' E 002°43'0 0.2
2014-Dec-20 14:30N 51°28' E 002°43'1 0.4
2014-Dec-20 12:29N 51°29' E 002°44'0 0.4
2014-Dec-20 11:31N 51°28' E 002°45'1 0.5
2014-Dec-20 10:22N 51°28' E 002°45'3 3.8
2014-Dec-20 09:32N 51°27' E 002°40'1 0.6
2014-Dec-20 08:27N 51°26' E 002°40'0 0.2
2014-Dec-20 07:33N 51°26' E 002°40'0 0.0
2014-Dec-20 06:33N 51°26' E 002°40'0 0.1
2014-Dec-20 05:33N 51°26' E 002°40'0 0.1
2014-Dec-20 04:33N 51°26' E 002°40'0 0.1
2014-Dec-20 03:30N 51°27' E 002°40'0 0.0
2014-Dec-20 02:24N 51°27' E 002°40'0 0.1
2014-Dec-20 01:33N 51°27' E 002°40'0 0.0
2014-Dec-20 00:15N 51°27' E 002°40'0 0.0
2014-Dec-19 23:15N 51°27' E 002°40'0 0.0
2014-Dec-19 22:24N 51°27' E 002°40'0 0.1
2014-Dec-19 21:24N 51°26' E 002°40'0 0.0
2014-Dec-19 20:33N 51°26' E 002°40'0 0.1
2014-Dec-19 19:33N 51°26' E 002°40'0 0.1
2014-Dec-19 18:33N 51°26' E 002°40'0 0.0
2014-Dec-19 17:30N 51°26' E 002°40'0 0.1
2014-Dec-19 16:33N 51°26' E 002°40'0 0.1
2014-Dec-19 15:33N 51°26' E 002°40'0 0.0
2014-Dec-19 14:30N 51°27' E 002°40'0 0.1
2014-Dec-19 12:33N 51°27' E 002°40'0 0.4
2014-Dec-19 11:33N 51°26' E 002°41'1211.6
2014-Dec-19 10:28N 51°20' E 002°23'1415.5
2014-Dec-19 09:34N 51°12' E 002°04'1515.3
2014-Dec-19 08:34N 51°04' E 001°44'11112.3
2014-Dec-18 23:33N 49°40' W 000°10'1010.3
2014-Dec-18 22:33N 49°31' W 000°03'7 6.5
2014-Dec-18 21:29N 49°28' E 000°07'0 0.0
2014-Dec-18 20:32N 49°28' E 000°07'0 0.0
2014-Dec-18 19:32N 49°28' E 000°07'0 0.0
2014-Dec-18 18:32N 49°28' E 000°07'0 0.0
2014-Dec-18 17:32N 49°28' E 000°07'0 0.0
2014-Dec-18 16:32N 49°28' E 000°07'0 0.0
2014-Dec-18 15:32N 49°28' E 000°07'0 0.0
2014-Dec-18 14:32N 49°28' E 000°07'0 0.0
2014-Dec-18 13:32N 49°28' E 000°07'0 0.0
2014-Dec-18 12:32N 49°28' E 000°07'0 0.0
2014-Dec-18 11:32N 49°28' E 000°07'0 0.0
2014-Dec-18 10:32N 49°28' E 000°07'0 0.0
2014-Dec-18 09:32N 49°28' E 000°07'0 0.0
2014-Dec-18 08:32N 49°28' E 000°07'0 0.0
2014-Dec-18 07:32N 49°28' E 000°07'0 0.0
2014-Dec-18 06:32N 49°28' E 000°07'0 0.0
2014-Dec-18 05:32N 49°28' E 000°07'0 0.0
2014-Dec-18 04:32N 49°28' E 000°07'0 0.0
2014-Dec-18 03:32N 49°28' E 000°07'0 0.0
2014-Dec-18 02:32N 49°28' E 000°07'0 0.0
2014-Dec-18 01:32N 49°28' E 000°07'0 0.0
2014-Dec-18 00:32N 49°28' E 000°07'0 0.0
2014-Dec-17 23:32N 49°28' E 000°07'0 0.0
2014-Dec-17 22:32N 49°28' E 000°07'0 0.0
2014-Dec-17 21:32N 49°28' E 000°07'0 0.0
2014-Dec-17 20:32N 49°28' E 000°07'0 0.0
2014-Dec-17 19:32N 49°28' E 000°07'0 0.0
2014-Dec-17 18:32N 49°28' E 000°07'0 0.0
2014-Dec-17 17:32N 49°28' E 000°07'0 0.0
2014-Dec-17 16:32N 49°28' E 000°07'0 0.0
2014-Dec-17 15:32N 49°28' E 000°07'0 0.0
2014-Dec-17 14:32N 49°28' E 000°07'0 0.0
2014-Dec-17 13:20N 49°28' E 000°07'0 0.0
2014-Dec-17 11:26N 49°28' E 000°07'0 0.0
2014-Dec-17 10:26N 49°28' E 000°07'0 0.0
2014-Dec-17 09:32N 49°28' E 000°07'0 0.0
2014-Dec-17 08:32N 49°28' E 000°07'0 0.0
2014-Dec-17 07:32N 49°28' E 000°07'0 0.0
2014-Dec-17 06:26N 49°28' E 000°07'0 0.0
2014-Dec-17 05:14N 49°28' E 000°07'0 0.0
2014-Dec-17 04:20N 49°28' E 000°07'0 0.0
2014-Dec-17 03:26N 49°28' E 000°07'0 0.0
2014-Dec-17 01:14N 49°28' E 000°07'0 0.0
2014-Dec-17 00:08N 49°28' E 000°07'0 0.0
2014-Dec-16 23:26N 49°28' E 000°07'0 0.0
2014-Dec-16 22:32N 49°28' E 000°07'0 0.0
2014-Dec-16 21:31N 49°28' E 000°07'0 0.0
2014-Dec-16 20:19N 49°28' E 000°07'0 0.0
2014-Dec-16 19:31N 49°28' E 000°07'0 0.0
2014-Dec-16 18:31N 49°28' E 000°07'0 0.0
2014-Dec-16 17:31N 49°28' E 000°07'0 0.0
2014-Dec-16 16:13N 49°28' E 000°07'0 0.0
2014-Dec-16 14:13N 49°28' E 000°07'0 0.0
2014-Dec-16 13:31N 49°28' E 000°07'0 0.0
2014-Dec-16 12:13N 49°28' E 000°07'0 0.0
2014-Dec-16 11:31N 49°28' E 000°07'0 0.0
2014-Dec-16 10:31N 49°28' E 000°07'0 0.0
2014-Dec-16 09:25N 49°28' E 000°07'0 0.0
2014-Dec-16 08:28N 49°28' E 000°07'0 0.0
2014-Dec-16 07:31N 49°28' E 000°07'0 0.0
2014-Dec-16 06:31N 49°28' E 000°07'0 0.0
2014-Dec-16 05:29N 49°28' E 000°07'0 0.0
2014-Dec-16 04:20N 49°28' E 000°07'0 0.0
2014-Dec-16 03:32N 49°28' E 000°07'0 0.0
2014-Dec-16 02:32N 49°28' E 000°07'0 0.0
2014-Dec-16 01:08N 49°28' E 000°07'0 0.0
2014-Dec-16 00:26N 49°28' E 000°07'0 0.0
2014-Dec-15 23:31N 49°28' E 000°07'0 0.0
2014-Dec-15 22:31N 49°28' E 000°07'0 0.0
2014-Dec-15 21:31N 49°28' E 000°07'0 0.0
2014-Dec-15 20:31N 49°28' E 000°07'0 0.0
2014-Dec-15 19:31N 49°28' E 000°07'0 0.0
2014-Dec-15 18:31N 49°28' E 000°07'0 0.0
2014-Dec-15 17:28N 49°28' E 000°07'0 0.0
2014-Dec-15 16:31N 49°28' E 000°07'0 0.0
2014-Dec-15 15:31N 49°28' E 000°07'0 0.1
2014-Dec-15 14:34N 49°28' E 000°07'7 6.9
2014-Dec-15 13:33N 49°30' W 000°03'7 6.7
2014-Dec-15 12:32N 49°37' W 000°07'59 9.9
2014-Dec-15 06:33N 50°33' E 000°23'1212.2
2014-Dec-15 05:33N 50°38' E 000°40'1111.5
2014-Dec-15 04:33N 50°44' E 000°55'1110.3
2014-Dec-15 03:32N 50°50' E 001°09'7 6.8
2014-Dec-15 02:33N 50°54' E 001°17'7 7.5
2014-Dec-15 01:33N 51°00' E 001°25'9 8.9
2014-Dec-15 00:33N 51°07' E 001°35'1010.0
2014-Dec-14 23:33N 51°14' E 001°46'1010.0
2014-Dec-14 22:33N 51°22' E 001°56'1110.7
2014-Dec-14 21:34N 51°22' E 002°13'1010.2
2014-Dec-14 20:33N 51°23' E 002°29'1111.2
2014-Dec-14 19:32N 51°22' E 002°47'1311.8
2014-Dec-14 18:24N 51°24' E 003°09'1113.1
2014-Dec-14 17:33N 51°25' E 003°26'1010.3
2014-Dec-14 16:33N 51°24' E 003°43'4 3.4
2014-Dec-14 15:32N 51°21' E 003°46'0 0.0
2014-Dec-14 14:32N 51°21' E 003°46'0 0.0
2014-Dec-14 13:26N 51°21' E 003°46'0 0.0
2014-Dec-14 12:32N 51°21' E 003°46'0 0.0
2014-Dec-14 11:32N 51°21' E 003°46'0 0.0
2014-Dec-14 10:32N 51°21' E 003°46'0 0.0
2014-Dec-14 09:32N 51°21' E 003°46'0 0.0
2014-Dec-14 08:32N 51°21' E 003°46'0 0.0
2014-Dec-14 07:32N 51°21' E 003°46'0 0.0
2014-Dec-14 06:32N 51°21' E 003°46'0 0.0
2014-Dec-14 05:32N 51°21' E 003°46'0 0.0
2014-Dec-14 04:32N 51°21' E 003°46'0 0.0
2014-Dec-14 03:32N 51°21' E 003°46'0 0.0
2014-Dec-14 02:26N 51°21' E 003°46'0 0.0
2014-Dec-14 01:32N 51°21' E 003°46'0 0.0
2014-Dec-14 00:23N 51°21' E 003°46'0 0.0
2014-Dec-13 23:32N 51°21' E 003°46'0 0.0
2014-Dec-13 22:23N 51°21' E 003°46'0 0.0
2014-Dec-13 21:32N 51°21' E 003°46'0 0.0
2014-Dec-13 20:32N 51°21' E 003°46'0 0.0
2014-Dec-13 19:29N 51°21' E 003°46'0 0.0
2014-Dec-13 18:32N 51°21' E 003°46'0 0.0
2014-Dec-13 17:32N 51°21' E 003°46'0 0.0
2014-Dec-13 16:26N 51°21' E 003°46'0 0.0
2014-Dec-13 15:32N 51°21' E 003°46'0 0.0
2014-Dec-13 14:14N 51°21' E 003°46'0 0.0
2014-Dec-13 13:31N 51°21' E 003°46'1 1.0
2014-Dec-13 12:33N 51°22' E 003°45'8 8.1
2014-Dec-13 11:33N 51°25' E 003°34'1211.6
2014-Dec-13 10:32N 51°24' E 003°15'9 9.5
2014-Dec-13 09:33N 51°28' E 003°01'1312.7
2014-Dec-13 08:33N 51°39' E 003°11'9 2.9
2014-Dec-13 05:31N 51°46' E 003°20'0 0.1
2014-Dec-13 04:04N 51°46' E 003°20'3 6.1
2014-Dec-13 03:33N 51°46' E 003°15'10 9.8
2014-Dec-13 02:33N 51°47' E 002°59'151 6.9
2014-Dec-12 04:30N 54°03' E 004°47'8 7.9
2014-Dec-12 03:32N 54°04' E 004°60'7 7.3
2014-Dec-12 02:32N 54°05' E 005°12'6 5.9
2014-Dec-12 01:33N 54°06' E 005°22'5 5.1
2014-Dec-12 00:31N 54°07' E 005°31'4 3.6
2014-Dec-11 23:31N 54°08' E 005°37'3 3.1
2014-Dec-11 22:32N 54°08' E 005°42'3 3.1
2014-Dec-11 21:33N 54°08' E 005°47'4 2.8
2014-Dec-11 20:18N 54°09' E 005°53'  
Track history (hours):
 
Tides and Currents Weather Stations Pressure Air Temp Water Temp Dewpoint Dewpoint Depression Visibility Wind Speed Wind Dir Waves Ship Positions

Fure West

Last reported at 2014-Dec-21 15:29 UTC. Time now 2014-Dec-21 15:54 UTC.
Position N 51°16' E 004°21'.

Length 144 m; draft 9.4 m.

Type: Tanker. MMSI: 231775000.

Date/timePositionNaut miles runAvg speedWind from/ knotsBaromVisibWave heightAir tempDewpointWater temp
2014-Dec-21 15:29N 51°16' E 004°21'0 0.0
2014-Dec-21 14:29N 51°16' E 004°21'0 0.0
2014-Dec-21 13:29N 51°16' E 004°21'0 0.2
2014-Dec-21 12:34N 51°17' E 004°21'1 0.6
2014-Dec-21 11:34N 51°17' E 004°20'2 2.0
2014-Dec-21 10:34N 51°18' E 004°17'9 8.8
2014-Dec-21 09:33N 51°22' E 004°05'9 8.8
2014-Dec-21 08:33N 51°21' E 003°51'1110.8
2014-Dec-21 07:33N 51°25' E 003°36'1211.6
2014-Dec-21 06:29N 51°24' E 003°16'10 7.8
2014-Dec-21 05:16N 51°29' E 003°03'913.2
2014-Dec-21 04:33N 51°37' E 003°11'8 7.4
2014-Dec-21 03:31N 51°45' E 003°09'3 2.4
2014-Dec-21 02:26N 51°45' E 003°05'0 0.5
2014-Dec-21 01:32N 51°45' E 003°04'1 1.3
2014-Dec-21 00:26N 51°46' E 003°06'1 0.9
2014-Dec-20 23:22N 51°45' E 003°06'1 1.6
2014-Dec-20 22:32N 51°45' E 003°04'1211.9
2014-Dec-20 21:33N 51°41' E 002°47'1111.4
2014-Dec-20 20:33N 51°30' E 002°41'1 1.4
2014-Dec-20 19:33N 51°29' E 002°41'0 0.5
2014-Dec-20 18:33N 51°28' E 002°41'1 0.6
2014-Dec-20 17:32N 51°28' E 002°41'0 0.4
2014-Dec-20 16:32N 51°28' E 002°42'0 0.5
2014-Dec-20 15:32N 51°28' E 002°43'0 0.2
2014-Dec-20 14:30N 51°28' E 002°43'1 0.4
2014-Dec-20 12:29N 51°29' E 002°44'0 0.4
2014-Dec-20 11:31N 51°28' E 002°45'1 0.5
2014-Dec-20 10:22N 51°28' E 002°45'3 3.8
2014-Dec-20 09:32N 51°27' E 002°40'1 0.6
2014-Dec-20 08:27N 51°26' E 002°40'0 0.2
2014-Dec-20 07:33N 51°26' E 002°40'0 0.0
2014-Dec-20 06:33N 51°26' E 002°40'0 0.1
2014-Dec-20 05:33N 51°26' E 002°40'0 0.1
2014-Dec-20 04:33N 51°26' E 002°40'0 0.1
2014-Dec-20 03:30N 51°27' E 002°40'0 0.0
2014-Dec-20 02:24N 51°27' E 002°40'0 0.1
2014-Dec-20 01:33N 51°27' E 002°40'0 0.0
2014-Dec-20 00:15N 51°27' E 002°40'0 0.0
2014-Dec-19 23:15N 51°27' E 002°40'0 0.0
2014-Dec-19 22:24N 51°27' E 002°40'0 0.1
2014-Dec-19 21:24N 51°26' E 002°40'0 0.0
2014-Dec-19 20:33N 51°26' E 002°40'0 0.1
2014-Dec-19 19:33N 51°26' E 002°40'0 0.1
2014-Dec-19 18:33N 51°26' E 002°40'0 0.0
2014-Dec-19 17:30N 51°26' E 002°40'0 0.1
2014-Dec-19 16:33N 51°26' E 002°40'0 0.1
2014-Dec-19 15:33N 51°26' E 002°40'0 0.0
2014-Dec-19 14:30N 51°27' E 002°40'0 0.1
2014-Dec-19 12:33N 51°27' E 002°40'0 0.4
2014-Dec-19 11:33N 51°26' E 002°41'1211.6
2014-Dec-19 10:28N 51°20' E 002°23'1415.5
2014-Dec-19 09:34N 51°12' E 002°04'1515.3
2014-Dec-19 08:34N 51°04' E 001°44'11112.3
2014-Dec-18 23:33N 49°40' W 000°10'1010.3
2014-Dec-18 22:33N 49°31' W 000°03'7 6.5
2014-Dec-18 21:29N 49°28' E 000°07'0 0.0
2014-Dec-18 20:32N 49°28' E 000°07'0 0.0
2014-Dec-18 19:32N 49°28' E 000°07'0 0.0
2014-Dec-18 18:32N 49°28' E 000°07'0 0.0
2014-Dec-18 17:32N 49°28' E 000°07'0 0.0
2014-Dec-18 16:32N 49°28' E 000°07'0 0.0
2014-Dec-18 15:32N 49°28' E 000°07'0 0.0
2014-Dec-18 14:32N 49°28' E 000°07'0 0.0
2014-Dec-18 13:32N 49°28' E 000°07'0 0.0
2014-Dec-18 12:32N 49°28' E 000°07'0 0.0
2014-Dec-18 11:32N 49°28' E 000°07'0 0.0
2014-Dec-18 10:32N 49°28' E 000°07'0 0.0
2014-Dec-18 09:32N 49°28' E 000°07'0 0.0
2014-Dec-18 08:32N 49°28' E 000°07'0 0.0
2014-Dec-18 07:32N 49°28' E 000°07'0 0.0
2014-Dec-18 06:32N 49°28' E 000°07'0 0.0
2014-Dec-18 05:32N 49°28' E 000°07'0 0.0
2014-Dec-18 04:32N 49°28' E 000°07'0 0.0
2014-Dec-18 03:32N 49°28' E 000°07'0 0.0
2014-Dec-18 02:32N 49°28' E 000°07'0 0.0
2014-Dec-18 01:32N 49°28' E 000°07'0 0.0
2014-Dec-18 00:32N 49°28' E 000°07'0 0.0
2014-Dec-17 23:32N 49°28' E 000°07'0 0.0
2014-Dec-17 22:32N 49°28' E 000°07'0 0.0
2014-Dec-17 21:32N 49°28' E 000°07'0 0.0
2014-Dec-17 20:32N 49°28' E 000°07'0 0.0
2014-Dec-17 19:32N 49°28' E 000°07'0 0.0
2014-Dec-17 18:32N 49°28' E 000°07'0 0.0
2014-Dec-17 17:32N 49°28' E 000°07'0 0.0
2014-Dec-17 16:32N 49°28' E 000°07'0 0.0
2014-Dec-17 15:32N 49°28' E 000°07'0 0.0
2014-Dec-17 14:32N 49°28' E 000°07'0 0.0
2014-Dec-17 13:20N 49°28' E 000°07'0 0.0
2014-Dec-17 11:26N 49°28' E 000°07'0 0.0
2014-Dec-17 10:26N 49°28' E 000°07'0 0.0
2014-Dec-17 09:32N 49°28' E 000°07'0 0.0
2014-Dec-17 08:32N 49°28' E 000°07'0 0.0
2014-Dec-17 07:32N 49°28' E 000°07'0 0.0
2014-Dec-17 06:26N 49°28' E 000°07'0 0.0
2014-Dec-17 05:14N 49°28' E 000°07'0 0.0
2014-Dec-17 04:20N 49°28' E 000°07'0 0.0
2014-Dec-17 03:26N 49°28' E 000°07'0 0.0
2014-Dec-17 01:14N 49°28' E 000°07'0 0.0
2014-Dec-17 00:08N 49°28' E 000°07'0 0.0
2014-Dec-16 23:26N 49°28' E 000°07'0 0.0
2014-Dec-16 22:32N 49°28' E 000°07'0 0.0
2014-Dec-16 21:31N 49°28' E 000°07'0 0.0
2014-Dec-16 20:19N 49°28' E 000°07'0 0.0
2014-Dec-16 19:31N 49°28' E 000°07'0 0.0
2014-Dec-16 18:31N 49°28' E 000°07'0 0.0
2014-Dec-16 17:31N 49°28' E 000°07'0 0.0
2014-Dec-16 16:13N 49°28' E 000°07'0 0.0
2014-Dec-16 14:13N 49°28' E 000°07'0 0.0
2014-Dec-16 13:31N 49°28' E 000°07'0 0.0
2014-Dec-16 12:13N 49°28' E 000°07'0 0.0
2014-Dec-16 11:31N 49°28' E 000°07'0 0.0
2014-Dec-16 10:31N 49°28' E 000°07'0 0.0
2014-Dec-16 09:25N 49°28' E 000°07'0 0.0
2014-Dec-16 08:28N 49°28' E 000°07'0 0.0
2014-Dec-16 07:31N 49°28' E 000°07'0 0.0
2014-Dec-16 06:31N 49°28' E 000°07'0 0.0
2014-Dec-16 05:29N 49°28' E 000°07'0 0.0
2014-Dec-16 04:20N 49°28' E 000°07'0 0.0
2014-Dec-16 03:32N 49°28' E 000°07'0 0.0
2014-Dec-16 02:32N 49°28' E 000°07'0 0.0
2014-Dec-16 01:08N 49°28' E 000°07'0 0.0
2014-Dec-16 00:26N 49°28' E 000°07'0 0.0
2014-Dec-15 23:31N 49°28' E 000°07'0 0.0
2014-Dec-15 22:31N 49°28' E 000°07'0 0.0
2014-Dec-15 21:31N 49°28' E 000°07'0 0.0
2014-Dec-15 20:31N 49°28' E 000°07'0 0.0
2014-Dec-15 19:31N 49°28' E 000°07'0 0.0
2014-Dec-15 18:31N 49°28' E 000°07'0 0.0
2014-Dec-15 17:28N 49°28' E 000°07'0 0.0
2014-Dec-15 16:31N 49°28' E 000°07'0 0.0
2014-Dec-15 15:31N 49°28' E 000°07'0 0.1
2014-Dec-15 14:34N 49°28' E 000°07'7 6.9
2014-Dec-15 13:33N 49°30' W 000°03'7 6.7
2014-Dec-15 12:32N 49°37' W 000°07'59 9.9
2014-Dec-15 06:33N 50°33' E 000°23'1212.2
2014-Dec-15 05:33N 50°38' E 000°40'1111.5
2014-Dec-15 04:33N 50°44' E 000°55'1110.3
2014-Dec-15 03:32N 50°50' E 001°09'7 6.8
2014-Dec-15 02:33N 50°54' E 001°17'7 7.5
2014-Dec-15 01:33N 51°00' E 001°25'9 8.9
2014-Dec-15 00:33N 51°07' E 001°35'1010.0
2014-Dec-14 23:33N 51°14' E 001°46'1010.0
2014-Dec-14 22:33N 51°22' E 001°56'1110.7
2014-Dec-14 21:34N 51°22' E 002°13'1010.2
2014-Dec-14 20:33N 51°23' E 002°29'1111.2
2014-Dec-14 19:32N 51°22' E 002°47'1311.8
2014-Dec-14 18:24N 51°24' E 003°09'1113.1
2014-Dec-14 17:33N 51°25' E 003°26'1010.3
2014-Dec-14 16:33N 51°24' E 003°43'4 3.4
2014-Dec-14 15:32N 51°21' E 003°46'0 0.0
2014-Dec-14 14:32N 51°21' E 003°46'0 0.0
2014-Dec-14 13:26N 51°21' E 003°46'0 0.0
2014-Dec-14 12:32N 51°21' E 003°46'0 0.0
2014-Dec-14 11:32N 51°21' E 003°46'0 0.0
2014-Dec-14 10:32N 51°21' E 003°46'0 0.0
2014-Dec-14 09:32N 51°21' E 003°46'0 0.0
2014-Dec-14 08:32N 51°21' E 003°46'0 0.0
2014-Dec-14 07:32N 51°21' E 003°46'0 0.0
2014-Dec-14 06:32N 51°21' E 003°46'0 0.0
2014-Dec-14 05:32N 51°21' E 003°46'0 0.0
2014-Dec-14 04:32N 51°21' E 003°46'0 0.0
2014-Dec-14 03:32N 51°21' E 003°46'0 0.0
2014-Dec-14 02:26N 51°21' E 003°46'0 0.0
2014-Dec-14 01:32N 51°21' E 003°46'0 0.0
2014-Dec-14 00:23N 51°21' E 003°46'0 0.0
2014-Dec-13 23:32N 51°21' E 003°46'0 0.0
2014-Dec-13 22:23N 51°21' E 003°46'0 0.0
2014-Dec-13 21:32N 51°21' E 003°46'0 0.0
2014-Dec-13 20:32N 51°21' E 003°46'0 0.0
2014-Dec-13 19:29N 51°21' E 003°46'0 0.0
2014-Dec-13 18:32N 51°21' E 003°46'0 0.0
2014-Dec-13 17:32N 51°21' E 003°46'0 0.0
2014-Dec-13 16:26N 51°21' E 003°46'0 0.0
2014-Dec-13 15:32N 51°21' E 003°46'0 0.0
2014-Dec-13 14:14N 51°21' E 003°46'0 0.0
2014-Dec-13 13:31N 51°21' E 003°46'1 1.0
2014-Dec-13 12:33N 51°22' E 003°45'8 8.1
2014-Dec-13 11:33N 51°25' E 003°34'1211.6
2014-Dec-13 10:32N 51°24' E 003°15'9 9.5
2014-Dec-13 09:33N 51°28' E 003°01'1312.7
2014-Dec-13 08:33N 51°39' E 003°11'9 2.9
2014-Dec-13 05:31N 51°46' E 003°20'0 0.1
2014-Dec-13 04:04N 51°46' E 003°20'3 6.1
2014-Dec-13 03:33N 51°46' E 003°15'10 9.8
2014-Dec-13 02:33N 51°47' E 002°59'151 6.9
2014-Dec-12 04:30N 54°03' E 004°47'8 7.9
2014-Dec-12 03:32N 54°04' E 004°60'7 7.3
2014-Dec-12 02:32N 54°05' E 005°12'6 5.9
2014-Dec-12 01:33N 54°06' E 005°22'5 5.1
2014-Dec-12 00:31N 54°07' E 005°31'4 3.6
2014-Dec-11 23:31N 54°08' E 005°37'3 3.1
2014-Dec-11 22:32N 54°08' E 005°42'3 3.1
2014-Dec-11 21:33N 54°08' E 005°47'4 2.8
2014-Dec-11 20:18N 54°09' E 005°53'  

Dump ship's entire track history